Airport View

Enter AWOS ICAO identifier for current METAR.

ex. KFNL

KAVC 212315Z AUTO 16004KT CLR 26/18 A3023 RMK AO2 T02580179

21 Sep 2019 23:23

Frequency: 127.525

Phone: 434-729-2229

Other Area AWOS: KLVL - KW31 - KCXE - KBKT

TAF KRWI 211720Z 2118/2218 22004KT P6SM FEW060 TEMPO 2207/2211 2SM BR FEW007